Time;durP1;ratioP1;P1;durP2;ratioP2;P2;SDS_P1;SDS_P2;PMS_P1;PMS_P2;Temp;Humidity;BMP_temperature;BMP_pressure;BME280_temperature;BME280_humidity;BME280_pressure;Samples;Min_cycle;Max_cycle;Signal;HPM_P1;HPM_P2
2021/11/06 00:00:26;;;;;;;45.43;24.43;;;;;;;15.61;79.62;100918.03;124924;1102;104254;-78
2021/11/06 00:03:14;;;;;;;45.97;25.27;;;;;;;15.62;79.78;100926.84;124980;1105;104182;-79
2021/11/06 00:05:46;;;;;;;44.40;26.17;;;;;;;15.59;80.43;100925.02;124979;1102;104185;-78
2021/11/06 00:08:18;;;;;;;49.43;25.87;;;;;;;15.57;80.25;100933.80;125022;1102;104153;-79
2021/11/06 00:10:52;;;;;;;51.85;26.75;;;;;;;15.53;80.27;100955.73;124913;1102;102331;-79
2021/11/06 00:13:26;;;;;;;59.40;27.63;;;;;;;15.43;79.59;100963.45;124936;1102;104152;-77
2021/11/06 00:15:59;;;;;;;52.27;28.00;;;;;;;15.30;79.46;100977.23;125032;1102;104152;-77
2021/11/06 00:18:33;;;;;;;49.40;27.67;;;;;;;15.29;80.33;100996.63;125001;1101;104147;-78
2021/11/06 00:21:05;;;;;;;53.78;28.10;;;;;;;15.26;79.66;101004.47;124957;1105;104174;-78
2021/11/06 00:23:39;;;;;;;55.12;25.97;;;;;;;15.22;80.51;101007.89;125002;1103;104197;-79
2021/11/06 00:26:11;;;;;;;45.75;26.70;;;;;;;15.22;80.66;100999.95;125005;1102;104147;-79
2021/11/06 00:28:47;;;;;;;46.17;24.40;;;;;;;15.25;79.81;101005.32;124982;1105;104172;-79
2021/11/06 00:31:21;;;;;;;43.47;24.87;;;;;;;15.22;80.62;101003.52;124925;1102;104142;-78
2021/11/06 00:33:53;;;;;;;;;;;;;;;15.18;79.42;101011.33;125023;1102;104172;-79
2021/11/06 00:36:29;;;;;;;43.67;24.27;;;;;;;15.08;79.67;101002.25;124990;1102;104243;-78
2021/11/06 00:39:05;;;;;;;42.27;24.00;;;;;;;15.06;80.53;101002.21;125039;1102;104226;-77
2021/11/06 00:41:41;;;;;;;48.20;26.27;;;;;;;15.03;80.69;100993.32;124952;1105;104248;-78
2021/11/06 00:44:15;;;;;;;51.37;26.73;;;;;;;14.94;80.54;100990.44;125007;1102;104450;-78
2021/11/06 00:46:51;;;;;;;52.50;29.23;;;;;;;14.89;80.83;100978.00;124991;1105;104201;-77
2021/11/06 00:49:26;;;;;;;52.73;30.43;;;;;;;14.84;80.79;100979.64;124996;1102;104149;-78
2021/11/06 00:51:57;;;;;;;57.53;28.17;;;;;;;14.78;80.12;100986.52;124985;1101;104152;-78
2021/11/06 00:54:30;;;;;;;55.73;28.90;;;;;;;14.69;79.97;100985.44;125024;1102;104211;-77
2021/11/06 00:57:03;;;;;;;55.27;28.50;;;;;;;14.64;80.28;100983.51;125002;1105;104325;-78
2021/11/06 00:59:39;;;;;;;52.03;28.85;;;;;;;14.62;80.80;100985.23;125014;1102;104152;-78
2021/11/06 01:02:11;;;;;;;50.60;27.83;;;;;;;14.58;79.94;100993.88;124975;1102;104179;-78
2021/11/06 01:04:45;;;;;;;57.23;28.33;;;;;;;14.53;79.98;100988.47;125041;1102;104595;-78
2021/11/06 01:07:19;;;;;;;56.27;30.17;;;;;;;14.48;80.18;100988.34;125013;1105;104166;-78
2021/11/06 01:09:56;;;;;;;59.03;28.87;;;;;;;14.43;80.69;100976.77;125004;1105;104143;-78
2021/11/06 01:12:30;;;;;;;57.33;29.23;;;;;;;14.38;80.17;100978.36;124949;1102;104149;-78
2021/11/06 01:15:01;;;;;;;;;;;;;;;14.33;80.79;101001.98;125026;1102;104147;-78
2021/11/06 01:17:35;;;;;;;57.50;31.67;;;;;;;14.31;81.19;101010.73;125007;1102;104175;-77
2021/11/06 01:20:09;;;;;;;58.40;34.00;;;;;;;14.30;81.14;101025.66;125020;1102;104153;-78
2021/11/06 01:22:44;;;;;;;60.00;33.73;;;;;;;14.24;81.24;101032.52;124967;1102;104149;-78
2021/11/06 01:25:17;;;;;;;70.90;39.33;;;;;;;14.16;81.24;101035.84;125004;1105;104176;-78
2021/11/06 01:27:50;;;;;;;69.20;38.83;;;;;;;14.03;81.60;101041.59;125020;1102;104211;-78
2021/11/06 01:30:24;;;;;;;76.92;42.53;;;;;;;13.89;81.81;101046.45;125016;1102;104222;-78
2021/11/06 01:32:59;;;;;;;77.13;41.03;;;;;;;13.82;81.84;101052.37;124958;1105;104184;-78
2021/11/06 01:35:31;;;;;;;72.93;40.70;;;;;;;13.74;81.59;101048.60;124917;1104;104191;-78
2021/11/06 01:38:02;;;;;;;73.80;39.97;;;;;;;13.65;82.22;101047.47;124832;1102;104222;-77
2021/11/06 01:40:35;;;;;;;64.87;37.63;;;;;;;13.57;81.90;101042.79;124947;1102;104197;-77
2021/11/06 01:43:06;;;;;;;59.97;36.53;;;;;;;13.52;81.89;101033.84;124947;1102;104159;-78
2021/11/06 01:45:39;;;;;;;60.28;36.85;;;;;;;13.42;81.92;101044.09;125011;1102;104169;-77
2021/11/06 01:48:12;;;;;;;58.60;35.60;;;;;;;13.30;81.99;101031.36;125003;1106;104181;-78
2021/11/06 01:50:46;;;;;;;60.10;35.35;;;;;;;13.20;81.30;101049.45;125012;1102;104175;-77
2021/11/06 01:53:19;;;;;;;56.20;34.87;;;;;;;13.13;81.96;101049.27;124829;1102;104136;-78
2021/11/06 01:55:53;;;;;;;62.47;35.13;;;;;;;13.11;82.18;101042.14;124824;1102;104252;-78
2021/11/06 01:58:30;;;;;;;56.63;34.53;;;;;;;13.04;81.55;101042.77;124854;1102;104140;-78
2021/11/06 02:01:07;;;;;;;61.33;35.40;;;;;;;12.95;82.25;101060.05;124813;1102;104223;-78
2021/11/06 02:03:38;;;;;;;55.83;33.97;;;;;;;12.88;81.95;101068.57;124905;1102;104175;-77
2021/11/06 02:06:14;;;;;;;56.80;34.43;;;;;;;12.81;81.75;101085.02;125004;1102;104172;-79
2021/11/06 02:08:47;;;;;;;55.30;33.87;;;;;;;12.76;81.94;101086.56;124975;1105;104172;-78
2021/11/06 02:11:21;;;;;;;55.73;34.77;;;;;;;12.73;82.13;101087.38;124947;1106;104284;-78
2021/11/06 02:13:54;;;;;;;52.67;33.40;;;;;;;12.73;82.56;101083.82;124935;1102;107690;-79
2021/11/06 02:16:29;;;;;;;58.97;33.53;;;;;;;12.72;82.32;101082.05;124843;1102;104178;-78
2021/11/06 02:19:03;;;;;;;58.90;34.45;;;;;;;12.68;82.16;101080.13;124978;1102;104694;-77
2021/11/06 02:21:36;;;;;;;62.17;34.80;;;;;;;12.66;81.96;101087.98;124957;1106;104200;-78
2021/11/06 02:24:11;;;;;;;60.50;35.95;;;;;;;12.66;82.03;101094.99;125064;1102;119089;-79
2021/11/06 02:26:47;;;;;;;59.47;34.33;;;;;;;12.63;82.10;101098.39;124993;1102;104258;-78
2021/11/06 02:29:22;;;;;;;60.13;35.10;;;;;;;12.63;82.32;101114.19;125005;1101;104245;-77
2021/11/06 02:31:55;;;;;;;62.13;36.37;;;;;;;12.63;82.02;101122.09;124909;1102;104143;-77
2021/11/06 02:34:28;;;;;;;;;;;;;;;12.62;82.58;101128.22;125056;1102;104181;-78
2021/11/06 02:37:03;;;;;;;59.03;34.03;;;;;;;12.63;82.42;101129.10;124876;1102;104191;-77
2021/11/06 02:39:35;;;;;;;60.33;34.73;;;;;;;12.65;82.11;101137.95;124890;1102;104246;-77
2021/11/06 02:42:10;;;;;;;63.53;36.13;;;;;;;12.63;82.54;101147.53;125030;1106;104181;-78
2021/11/06 02:44:44;;;;;;;60.00;35.67;;;;;;;12.61;82.43;101152.73;125057;1103;110532;-79
2021/11/06 02:47:18;;;;;;;60.13;33.77;;;;;;;12.61;82.61;101165.91;125034;1102;104156;-77
2021/11/06 02:49:52;;;;;;;65.33;38.60;;;;;;;12.57;83.15;101175.44;124983;1102;104155;-78
2021/11/06 02:52:27;;;;;;;61.17;35.70;;;;;;;12.58;82.34;101176.32;124969;1103;104310;-79
2021/11/06 02:55:01;;;;;;;63.37;35.73;;;;;;;12.57;83.20;101187.67;125081;1103;104216;-79
2021/11/06 02:57:33;;;;;;;58.70;35.75;;;;;;;12.59;83.00;101192.17;124875;1102;104173;-77
2021/11/06 03:00:10;;;;;;;62.03;37.27;;;;;;;12.61;82.61;101189.60;124914;1102;104146;-77
2021/11/06 03:02:43;;;;;;;63.27;36.50;;;;;;;12.62;83.42;101196.67;124869;1102;104290;-78
2021/11/06 03:05:17;;;;;;;58.70;34.90;;;;;;;12.62;82.99;101206.28;125016;1102;109127;-78
2021/11/06 03:07:50;;;;;;;61.00;34.27;;;;;;;12.64;83.18;101199.36;124980;1102;104152;-78
2021/11/06 03:10:24;;;;;;;54.23;33.37;;;;;;;12.62;83.29;101204.57;125003;1102;104174;-78
2021/11/06 03:13:01;;;;;;;61.70;32.13;;;;;;;12.61;83.13;101200.13;124985;1102;104174;-78
2021/11/06 03:15:34;;;;;;;57.20;31.82;;;;;;;12.62;83.04;101212.47;124948;1102;118906;-78
2021/11/06 03:18:07;;;;;;;55.73;31.82;;;;;;;12.66;83.33;101214.36;124968;1102;104182;-78
2021/11/06 03:20:42;;;;;;;53.38;29.82;;;;;;;12.72;83.09;101218.98;125013;1102;104201;-78
2021/11/06 03:23:15;;;;;;;48.87;29.53;;;;;;;12.75;83.09;101221.73;125028;1101;104248;-77
2021/11/06 03:25:49;;;;;;;45.47;26.53;;;;;;;12.76;82.72;101228.77;125030;1102;104602;-77
2021/11/06 03:28:26;;;;;;;46.30;26.43;;;;;;;12.80;82.65;101232.44;124959;1106;104240;-78
2021/11/06 03:31:02;;;;;;;41.80;21.63;;;;;;;12.83;82.73;101235.19;125382;1102;104245;-77
2021/11/06 03:33:34;;;;;;;41.37;21.47;;;;;;;12.82;82.30;101239.54;126310;1099;104322;-78
2021/11/06 03:36:07;;;;;;;35.95;19.50;;;;;;;12.81;82.25;101240.41;126274;1099;110209;-77
2021/11/06 03:38:45;;;;;;;34.48;19.17;;;;;;;12.79;82.10;101231.52;126295;1099;104258;-78
2021/11/06 03:41:22;;;;;;;34.27;17.77;;;;;;;12.81;82.03;101234.21;126349;1099;104172;-78
2021/11/06 03:43:54;;;;;;;31.27;16.80;;;;;;;12.83;81.67;101232.56;125164;1099;104217;-77
2021/11/06 03:46:28;;;;;;;31.27;14.97;;;;;;;12.83;81.52;101243.98;125398;1100;104241;-78
2021/11/06 03:48:58;;;;;;;28.13;14.10;;;;;;;12.83;81.37;101238.71;125386;1099;104146;-78
2021/11/06 03:51:29;;;;;;;29.13;13.70;;;;;;;12.87;81.76;101252.89;126341;1099;104220;-78
2021/11/06 03:54:00;;;;;;;27.10;13.17;;;;;;;12.88;81.59;101250.31;126311;1099;104360;-79
2021/11/06 03:56:31;;;;;;;24.00;12.13;;;;;;;12.90;81.96;101253.92;126008;1099;107809;-79
2021/11/06 03:59:02;;;;;;;24.00;10.77;;;;;;;12.94;81.16;101260.20;126320;1099;104168;-78
2021/11/06 04:01:34;;;;;;;22.67;10.27;;;;;;;12.95;81.30;101272.54;126317;1099;104165;-78
2021/11/06 04:04:08;;;;;;;20.70;9.07;;;;;;;12.95;80.93;101262.00;126300;1099;104201;-79
2021/11/06 04:06:39;;;;;;;19.20;9.23;;;;;;;12.97;80.99;101270.85;125353;1099;104192;-78
2021/11/06 04:09:10;;;;;;;20.07;8.73;;;;;;;12.99;81.25;101277.06;126291;1098;104618;-78
2021/11/06 04:11:45;;;;;;;22.73;9.27;;;;;;;13.02;80.89;101271.91;126344;1099;104241;-78
2021/11/06 04:14:17;;;;;;;18.65;8.93;;;;;;;13.06;80.84;101270.31;125224;1099;104316;-78
2021/11/06 04:16:49;;;;;;;18.13;8.37;;;;;;;13.08;80.97;101271.27;126177;1099;104191;-77
2021/11/06 04:19:20;;;;;;;21.40;8.53;;;;;;;13.06;80.28;101254.51;126336;1097;104207;-78
2021/11/06 04:21:55;;;;;;;19.20;8.00;;;;;;;13.08;80.75;101271.27;126324;1099;104178;-78
2021/11/06 04:24:29;;;;;;;16.83;7.20;;;;;;;13.14;80.63;101276.77;126323;1099;104147;-78
2021/11/06 04:27:00;;;;;;;16.50;7.50;;;;;;;13.13;79.91;101278.52;126212;1099;105498;-78
2021/11/06 04:29:32;;;;;;;19.93;7.73;;;;;;;13.09;79.46;101281.86;126340;1099;104225;-78
2021/11/06 04:32:03;;;;;;;13.97;6.50;;;;;;;13.06;78.52;101289.64;126325;1099;104235;-78
2021/11/06 04:34:34;;;;;;;15.37;7.00;;;;;;;13.02;78.45;101298.26;126297;1099;104143;-78
2021/11/06 04:37:08;;;;;;;17.57;6.63;;;;;;;13.00;78.30;101288.52;125356;1099;104213;-78
2021/11/06 04:39:40;;;;;;;17.03;6.70;;;;;;;12.98;78.24;101305.98;126313;1099;104271;-78
2021/11/06 04:42:15;;;;;;;16.57;6.67;;;;;;;12.91;77.03;101325.93;126324;1099;104152;-78
2021/11/06 04:44:47;;;;;;;13.27;6.30;;;;;;;12.87;76.61;101318.73;126330;1099;104277;-76
2021/11/06 04:47:18;;;;;;;14.13;6.00;;;;;;;12.83;76.55;101324.74;126151;1099;104201;-78
2021/11/06 04:49:49;;;;;;;14.33;5.90;;;;;;;12.82;76.92;101315.92;126343;1099;104252;-78
2021/11/06 04:52:20;;;;;;;11.33;5.73;;;;;;;12.82;77.09;101339.63;126308;1099;104255;-78
2021/11/06 04:54:51;;;;;;;10.23;5.10;;;;;;;12.82;75.17;101352.80;126328;1099;104686;-77
2021/11/06 04:57:22;;;;;;;12.17;5.70;;;;;;;12.79;75.72;101344.77;126171;1099;104166;-79
2021/11/06 04:59:52;;;;;;;15.20;5.73;;;;;;;12.75;75.14;101350.77;126255;1099;104204;-77
2021/11/06 05:02:23;;;;;;;12.67;5.63;;;;;;;12.74;75.03;101348.96;126327;1099;104152;-78
2021/11/06 05:04:53;;;;;;;12.17;5.47;;;;;;;12.72;74.38;101361.17;126283;1098;104155;-78
2021/11/06 05:07:25;;;;;;;12.33;5.83;;;;;;;12.74;74.68;101375.30;126173;1099;104255;-78
2021/11/06 05:09:56;;;;;;;12.27;5.70;;;;;;;12.74;74.68;101376.19;126332;1098;104220;-77
2021/11/06 05:12:27;;;;;;;10.93;5.30;;;;;;;12.75;73.51;101383.26;126290;1099;104142;-78
2021/11/06 05:14:58;;;;;;;13.53;6.50;;;;;;;12.73;74.04;101390.20;126317;1099;104663;-77
2021/11/06 05:17:28;;;;;;;15.63;5.80;;;;;;;12.71;73.46;101404.14;126193;1099;104525;-77
2021/11/06 05:19:59;;;;;;;12.40;5.73;;;;;;;12.70;73.77;101420.76;126336;1099;104312;-77
2021/11/06 05:22:30;;;;;;;14.43;5.70;;;;;;;12.70;72.84;101418.12;126288;1099;104261;-77
2021/11/06 05:25:03;;;;;;;8.83;4.90;;;;;;;12.73;73.07;101421.81;126262;1099;104427;-78
2021/11/06 05:27:34;;;;;;;12.50;5.33;;;;;;;12.74;73.04;101426.22;126232;1098;104159;-78
2021/11/06 05:30:08;;;;;;;10.07;5.00;;;;;;;12.76;73.21;101435.11;126374;1099;104192;-78
2021/11/06 05:32:40;;;;;;;14.05;5.87;;;;;;;12.76;73.53;101431.55;126337;1099;104162;-78
2021/11/06 05:35:13;;;;;;;16.47;5.90;;;;;;;12.73;72.63;101437.61;126301;1099;104284;-77
2021/11/06 05:37:44;;;;;;;11.45;5.83;;;;;;;12.73;73.22;101441.95;126106;1099;104262;-78
2021/11/06 05:40:17;;;;;;;11.20;5.17;;;;;;;12.74;72.78;101439.38;126266;1099;104293;-77
2021/11/06 05:42:48;;;;;;;10.97;5.03;;;;;;;12.72;72.50;101440.18;126239;1099;104249;-78
2021/11/06 05:45:19;;;;;;;11.30;5.13;;;;;;;12.70;71.48;101442.75;126240;1099;104185;-79
2021/11/06 05:47:49;;;;;;;10.77;5.23;;;;;;;12.66;71.31;101440.81;126276;1099;104213;-77
2021/11/06 05:50:20;;;;;;;10.87;4.97;;;;;;;12.65;70.66;101449.53;125375;1099;104361;-78
2021/11/06 05:52:51;;;;;;;9.73;4.77;;;;;;;12.63;71.35;101451.20;126332;1099;104239;-79
2021/11/06 05:55:26;;;;;;;10.55;4.50;;;;;;;12.63;71.02;101451.20;126303;1099;104136;-77
2021/11/06 05:57:56;;;;;;;;;;;;;;;12.59;69.49;101459.84;126236;1098;104182;-78
2021/11/06 06:00:27;;;;;;;10.50;4.70;;;;;;;12.60;70.53;101474.78;126207;1099;104152;-78
2021/11/06 06:02:57;;;;;;;13.60;5.17;;;;;;;12.61;70.55;101487.12;126157;1099;104142;-77
2021/11/06 06:05:28;;;;;;;13.30;5.27;;;;;;;12.63;70.15;101490.70;126160;1099;104214;-79
2021/11/06 06:07:59;;;;;;;8.80;4.97;;;;;;;12.64;69.63;101521.48;126217;1099;103996;-77
2021/11/06 06:10:30;;;;;;;12.80;5.57;;;;;;;12.57;69.93;101520.33;126342;1099;104255;-78
2021/11/06 06:13:02;;;;;;;15.30;6.37;;;;;;;12.48;69.80;101519.00;126324;1099;104173;-78
2021/11/06 06:15:36;;;;;;;10.93;5.17;;;;;;;12.45;70.17;101524.13;125392;1099;104287;-78
2021/11/06 06:18:10;;;;;;;14.03;5.60;;;;;;;12.45;70.30;101513.59;125305;1099;104158;-78
2021/11/06 06:20:41;;;;;;;;;;;;;;;12.40;69.90;101513.39;125419;1100;104223;-78
2021/11/06 06:23:14;;;;;;;16.37;6.13;;;;;;;12.34;70.13;101521.02;126323;1099;104149;-76
2021/11/06 06:25:45;;;;;;;14.53;5.97;;;;;;;12.34;70.41;101528.91;126348;1099;104254;-78
2021/11/06 06:28:16;;;;;;;15.73;6.13;;;;;;;12.31;70.20;101526.13;126183;1099;104409;-78
2021/11/06 06:30:48;;;;;;;18.00;6.70;;;;;;;12.27;70.26;101527.73;126279;1099;104143;-77
2021/11/06 06:33:21;;;;;;;19.10;6.60;;;;;;;12.27;70.59;101540.02;126264;1099;104181;-78
2021/11/06 06:35:55;;;;;;;12.58;6.00;;;;;;;12.25;69.96;101546.91;125402;1100;104150;-77
2021/11/06 06:38:31;;;;;;;12.30;5.40;;;;;;;12.20;70.32;101555.52;125390;1102;104322;-77
2021/11/06 06:41:06;;;;;;;13.10;5.97;;;;;;;12.22;70.14;101556.48;126318;1099;104277;-77
2021/11/06 06:43:38;;;;;;;18.65;6.50;;;;;;;12.20;70.37;101552.89;125255;1099;104143;-78
2021/11/06 06:46:10;;;;;;;18.70;6.17;;;;;;;12.23;70.70;101558.29;126299;1099;104133;-78
2021/11/06 06:48:42;;;;;;;15.55;6.08;;;;;;;12.26;70.63;101564.52;126178;1099;104149;-77
2021/11/06 06:51:18;;;;;;;18.10;6.97;;;;;;;12.23;70.60;101566.19;126316;1098;104271;-79
2021/11/06 06:53:54;;;;;;;16.47;7.10;;;;;;;12.21;70.67;101573.09;125417;1102;104980;-78
2021/11/06 06:56:28;;;;;;;17.83;8.37;;;;;;;12.21;70.84;101580.09;125204;1099;104211;-77
2021/11/06 06:59:04;;;;;;;11.28;5.70;;;;;;;12.21;70.93;101582.72;125175;1099;104246;-78
2021/11/06 07:01:37;;;;;;;15.23;5.77;;;;;;;12.19;71.12;101587.02;126305;1099;104142;-79
2021/11/06 07:04:10;;;;;;;14.20;5.83;;;;;;;12.23;71.12;101592.50;126342;1099;104170;-78
2021/11/06 07:06:41;;;;;;;12.70;5.63;;;;;;;12.30;70.91;101595.41;126284;1099;104141;-78
2021/11/06 07:09:17;;;;;;;17.03;6.30;;;;;;;12.30;71.11;101598.05;126083;1099;104627;-78
2021/11/06 07:11:51;;;;;;;12.67;6.47;;;;;;;12.30;70.83;101608.58;125357;1099;104248;-79
2021/11/06 07:14:26;;;;;;;17.33;7.53;;;;;;;12.27;71.06;101611.06;125450;1102;104163;-78
2021/11/06 07:17:01;;;;;;;14.85;6.55;;;;;;;12.24;71.24;101619.70;126350;1099;104204;-78
2021/11/06 07:19:35;;;;;;;15.27;6.77;;;;;;;12.23;70.42;101621.45;125323;1102;104302;-78
2021/11/06 07:22:08;;;;;;;15.40;7.47;;;;;;;12.25;71.09;101625.86;126308;1099;104216;-78
2021/11/06 07:24:42;;;;;;;16.07;6.43;;;;;;;12.25;70.94;101623.23;126310;1098;104252;-78
2021/11/06 07:27:15;;;;;;;17.62;6.67;;;;;;;12.28;70.62;101621.66;125380;1099;104322;-77
2021/11/06 07:29:48;;;;;;;14.03;6.50;;;;;;;12.35;70.60;101636.00;126222;1099;104150;-78
2021/11/06 07:32:20;;;;;;;16.77;6.97;;;;;;;12.32;70.55;101623.58;126277;1099;104147;-77
2021/11/06 07:34:51;;;;;;;14.17;6.40;;;;;;;12.31;70.61;101627.06;125377;1099;105041;-78
2021/11/06 07:37:23;;;;;;;13.83;6.03;;;;;;;12.38;70.59;101625.61;126321;1099;104261;-78
2021/11/06 07:39:58;;;;;;;17.23;6.40;;;;;;;12.38;70.37;101628.25;126176;1099;104149;-78
2021/11/06 07:42:32;;;;;;;13.97;5.87;;;;;;;12.45;70.17;101622.44;125243;1102;104322;-78
2021/11/06 07:45:03;;;;;;;11.40;5.00;;;;;;;12.51;69.85;101624.44;126268;1099;104277;-78
2021/11/06 07:47:33;;;;;;;15.43;5.90;;;;;;;12.53;70.30;101628.95;126321;1099;104146;-78
2021/11/06 07:50:06;;;;;;;12.20;5.00;;;;;;;12.56;69.46;101622.94;126239;1099;104306;-78
2021/11/06 07:52:40;;;;;;;12.98;5.00;;;;;;;12.53;69.07;101639.48;126330;1099;104662;-78
2021/11/06 07:55:16;;;;;;;14.30;5.20;;;;;;;12.59;69.60;101629.23;125413;1099;104239;-78
2021/11/06 07:57:49;;;;;;;12.03;5.10;;;;;;;12.67;69.08;101636.56;126286;1099;104341;-79
2021/11/06 08:00:20;;;;;;;13.27;5.10;;;;;;;12.74;69.38;101630.75;126210;1099;104245;-77
2021/11/06 08:02:51;;;;;;;7.77;4.53;;;;;;;12.78;67.99;101635.33;126331;1099;104189;-79
2021/11/06 08:05:22;;;;;;;9.83;4.33;;;;;;;12.85;68.19;101628.59;126343;1099;104142;-79
2021/11/06 08:07:57;;;;;;;9.87;4.47;;;;;;;12.88;67.01;101634.00;126297;1099;104256;-78
2021/11/06 08:10:28;;;;;;;7.10;3.80;;;;;;;12.91;65.45;101632.39;125355;1099;104299;-77
2021/11/06 08:13:01;;;;;;;9.00;4.07;;;;;;;13.00;66.38;101617.84;126341;1099;104176;-78
2021/11/06 08:15:33;;;;;;;8.33;3.95;;;;;;;13.06;66.29;101615.48;126334;1099;104206;-78
2021/11/06 08:18:06;;;;;;;8.35;4.10;;;;;;;13.05;65.07;101621.57;126357;1098;104249;-78
2021/11/06 08:20:36;;;;;;;6.93;4.13;;;;;;;13.06;65.28;101631.29;126187;1099;104237;-77
2021/11/06 08:23:07;;;;;;;7.73;3.90;;;;;;;13.15;64.57;101631.69;126241;1099;104143;-77
2021/11/06 08:25:38;;;;;;;8.73;3.67;;;;;;;13.13;60.40;101638.61;126258;1099;104258;-77
2021/11/06 08:28:10;;;;;;;7.77;3.77;;;;;;;13.16;62.00;101644.02;126162;1099;104168;-77
2021/11/06 08:30:41;;;;;;;10.00;4.07;;;;;;;13.24;62.28;101642.59;126075;1099;104147;-78
2021/11/06 08:33:12;;;;;;;6.77;3.83;;;;;;;13.29;62.46;101637.52;125265;1099;104671;-78
2021/11/06 08:35:42;;;;;;;9.57;3.87;;;;;;;13.40;62.52;101633.67;125297;1099;103954;-78
2021/11/06 08:38:13;;;;;;;10.67;4.20;;;;;;;13.52;63.33;101653.47;126346;1099;104166;-78
2021/11/06 08:40:45;;;;;;;9.90;4.30;;;;;;;13.65;63.09;101661.07;126184;1099;104226;-78
2021/11/06 08:43:16;;;;;;;11.00;4.53;;;;;;;13.72;62.18;101672.77;126252;1098;104178;-78
2021/11/06 08:45:49;;;;;;;9.87;4.83;;;;;;;13.69;60.93;101672.64;126281;1099;104260;-76
2021/11/06 08:48:20;;;;;;;9.43;4.80;;;;;;;13.70;61.20;101671.78;125337;1102;104210;-78
2021/11/06 08:50:51;;;;;;;12.30;4.87;;;;;;;13.69;60.29;101677.91;126205;1099;104306;-78
2021/11/06 08:53:22;;;;;;;9.30;4.63;;;;;;;13.71;59.21;101690.30;126315;1099;105156;-77
2021/11/06 08:55:53;;;;;;;9.57;4.57;;;;;;;13.72;59.79;101678.93;126319;1099;104242;-77
2021/11/06 08:58:23;;;;;;;10.63;4.90;;;;;;;13.76;59.28;101693.14;126309;1099;104149;-77
2021/11/06 09:00:55;;;;;;;9.03;4.40;;;;;;;13.82;60.64;101694.31;126216;1099;104621;-77
2021/11/06 09:03:29;;;;;;;9.07;4.53;;;;;;;13.83;59.47;101680.27;126338;1099;104213;-77
2021/11/06 09:06:00;;;;;;;7.67;4.27;;;;;;;13.86;59.97;101681.25;126322;1099;104269;-79
2021/11/06 09:08:35;;;;;;;11.83;4.60;;;;;;;13.88;60.15;101691.01;126359;1099;101784;-78
2021/11/06 09:11:10;;;;;;;12.17;5.87;;;;;;;13.90;60.01;101686.72;126180;1099;104248;-77
2021/11/06 09:13:43;;;;;;;11.23;5.53;;;;;;;13.94;59.77;101690.38;126292;1099;104245;-78
2021/11/06 09:16:16;;;;;;;13.07;5.33;;;;;;;14.08;59.27;101690.94;126350;1099;104206;-77
2021/11/06 09:18:47;;;;;;;14.07;5.57;;;;;;;14.15;58.51;101690.36;126329;1099;104145;-78
2021/11/06 09:21:20;;;;;;;12.97;5.60;;;;;;;14.20;57.82;101688.79;126177;1099;104197;-78
2021/11/06 09:23:51;;;;;;;11.17;5.53;;;;;;;14.18;57.68;101690.48;126299;1099;104258;-78
2021/11/06 09:26:23;;;;;;;13.70;5.70;;;;;;;14.18;57.93;101677.28;125130;1099;104195;-78
2021/11/06 09:28:53;;;;;;;12.07;5.33;;;;;;;14.23;57.21;101651.03;126276;1099;104634;-78
2021/11/06 09:31:24;;;;;;;11.97;5.60;;;;;;;14.27;57.18;101648.57;126230;1099;104137;-78
2021/11/06 09:33:55;;;;;;;12.83;5.80;;;;;;;14.25;56.80;101663.47;126316;1099;104156;-77
2021/11/06 09:36:26;;;;;;;14.10;6.13;;;;;;;14.25;55.18;101660.83;126337;1099;104274;-77
2021/11/06 09:39:01;;;;;;;12.80;5.95;;;;;;;14.28;56.29;101655.66;126319;1099;104278;-77
2021/11/06 09:41:32;;;;;;;13.47;6.53;;;;;;;14.26;55.96;101641.52;126177;1099;104203;-77
2021/11/06 09:44:03;;;;;;;12.63;6.00;;;;;;;14.17;56.77;101630.59;126249;1099;104143;-77
2021/11/06 09:46:34;;;;;;;12.80;6.07;;;;;;;14.14;55.74;101634.00;126229;1099;104197;-78
2021/11/06 09:49:05;;;;;;;13.90;6.10;;;;;;;14.06;55.55;101645.12;126261;1099;105303;-77
2021/11/06 09:51:37;;;;;;;12.57;5.90;;;;;;;13.94;56.13;101630.57;126151;1099;104303;-78
2021/11/06 09:54:07;;;;;;;12.40;5.83;;;;;;;13.88;56.76;101632.96;126284;1099;104220;-79
2021/11/06 09:56:38;;;;;;;14.20;6.27;;;;;;;13.97;56.06;101643.00;126332;1099;104239;-77
2021/11/06 09:59:10;;;;;;;12.87;6.07;;;;;;;14.04;56.02;101631.86;126325;1099;104216;-78
2021/11/06 10:01:41;;;;;;;15.07;6.73;;;;;;;14.13;55.89;101613.75;125241;1099;104738;-78
2021/11/06 10:04:12;;;;;;;17.27;6.10;;;;;;;14.29;55.18;101620.52;126263;1100;104309;-77
2021/11/06 10:06:45;;;;;;;11.90;5.70;;;;;;;14.44;54.76;101627.21;126276;1099;104149;-76
2021/11/06 10:09:17;;;;;;;15.33;6.23;;;;;;;14.43;54.74;101623.68;126339;1099;104695;-78
2021/11/06 10:11:52;;;;;;;12.60;6.20;;;;;;;14.49;54.77;101607.15;126242;1099;104185;-76
2021/11/06 10:14:26;;;;;;;13.17;6.40;;;;;;;14.58;55.44;101603.96;125307;1102;104384;-79
2021/11/06 10:16:59;;;;;;;14.27;6.37;;;;;;;14.67;54.97;101597.30;125270;1103;104352;-77
2021/11/06 10:19:31;;;;;;;16.13;6.43;;;;;;;14.82;55.34;101596.97;125313;1102;104342;-78
2021/11/06 10:22:13;;;;;;;14.97;7.03;;;;;;;14.89;55.00;101613.93;125145;1102;104255;-76
2021/11/06 10:24:47;;;;;;;14.60;6.43;;;;;;;14.87;56.26;101608.59;125276;1102;104242;-78
2021/11/06 10:27:21;;;;;;;15.33;7.23;;;;;;;14.85;55.10;101612.93;125235;1102;104391;-77
2021/11/06 10:30:06;;;;;;;13.05;6.17;;;;;;;14.84;54.87;101620.80;125255;1102;104274;-77
2021/11/06 10:32:38;;;;;;;15.87;6.90;;;;;;;14.92;55.07;101635.19;125248;1102;104200;-77
2021/11/06 10:35:21;;;;;;;14.10;7.20;;;;;;;14.88;54.85;101627.97;125306;1102;104325;-77
2021/11/06 10:38:00;;;;;;;11.63;5.70;;;;;;;14.90;54.37;101624.55;125289;1102;104188;-77
2021/11/06 10:40:35;;;;;;;16.10;6.57;;;;;;;14.96;53.60;101625.61;125298;1102;104708;-78
2021/11/06 10:43:06;;;;;;;15.30;6.50;;;;;;;15.05;53.67;101632.15;125240;1102;104143;-77
2021/11/06 10:45:42;;;;;;;16.43;6.50;;;;;;;15.01;50.81;101622.30;125486;1100;104299;-78
2021/11/06 10:48:16;;;;;;;14.67;6.50;;;;;;;15.00;52.66;101612.56;125222;1099;104185;-78
2021/11/06 10:50:55;;;;;;;12.90;6.50;;;;;;;15.00;52.56;101612.56;126214;1099;104254;-77
2021/11/06 10:53:44;;;;;;;14.03;6.13;;;;;;;15.05;52.54;101611.00;125286;1099;104226;-78
2021/11/06 10:56:30;;;;;;;13.57;6.33;;;;;;;15.03;52.85;101611.78;125352;1099;104236;-77
2021/11/06 10:59:04;;;;;;;10.43;5.77;;;;;;;14.98;52.61;101618.66;126294;1099;104181;-77
2021/11/06 11:01:37;;;;;;;13.70;6.20;;;;;;;14.95;53.26;101618.55;125350;1099;104162;-77
2021/11/06 11:04:10;;;;;;;12.33;6.23;;;;;;;14.92;52.01;101630.78;125349;1099;104239;-77
2021/11/06 11:06:46;;;;;;;16.50;6.60;;;;;;;14.87;51.56;101612.98;126365;1098;104210;-78
2021/11/06 11:09:19;;;;;;;12.87;6.20;;;;;;;14.88;51.46;101618.33;126266;1099;104239;-77
2021/11/06 11:11:51;;;;;;;12.40;5.67;;;;;;;14.91;52.56;101617.52;126321;1099;104198;-77
2021/11/06 11:14:23;;;;;;;13.83;5.90;;;;;;;14.97;52.06;101622.13;126297;1099;104258;-78
2021/11/06 11:16:57;;;;;;;11.60;5.77;;;;;;;14.96;51.41;101617.68;126314;1099;104142;-77
2021/11/06 11:19:40;;;;;;;11.33;5.50;;;;;;;14.92;50.56;101624.61;126338;1099;104184;-78
2021/11/06 11:22:25;;;;;;;13.20;5.90;;;;;;;14.88;50.68;101630.62;126296;1099;104172;-78
2021/11/06 11:24:57;;;;;;;14.77;6.07;;;;;;;14.82;50.65;101630.39;126270;1099;104219;-77
2021/11/06 11:27:28;;;;;;;12.40;5.60;;;;;;;14.79;50.66;101623.28;126306;1099;104255;-77